Terminal Aerodrome Forecast
Issued by NWS

Home | Current Version | Previous Version | Text Only | Print | Product List | Glossary Off
Versions: 1 2 3 4 5 6 7 8 9 10 11 12 13 14 15

000
FTUS45 KGGW 022300
TAFSDY
TAF
KSDY 022320Z 0300/0324 31018KT P6SM VCSH BKN027 OVC035
     FM031000 33024G33KT P6SM BKN030
     FM032100 33023G33KT P6SM BKN040
      AMD LTD TO CLD VIS AND WIND=

USA.gov is the U.S. government's official web portal to all federal, state and local government web resources and services.